Amunt
Inicio > meteoXarxa
Fes-te'n soci

METEOXARXA

Xodos
Ubicació
Comarca l′Alcalatén
Altitud (msnm) 1100
Posició geogràfica 40° 14' 44.16" N, 00° 17' 15.03" W
Model Davis Vantage Pro2 calefactada
Presa de dades
Font de les dades Ajuntament de Xodos (Pablo Solsona Palazón)
Estadístiques. Resum
Data Temperatura (ºC) Humitat (%) Pressió (hPa) Vent (km/h) Precipit. (mm)
Mínima Mitjana Màxima Mínima Mitjana Màxima Mínima Mitjana Màxima Predom. Mitjana Ràfega màxima Total Dies de pluja
Mínima Mitjana Màxima Mínima Mitjana Màxima
Últimes dades diàries
25-03-2017 2,9     5,8     9,2 WSW 15,6 53,1 0,0  
24-03-2017 0,1     2,9     5,9 N 9,8 32,2 6,0  
23-03-2017 0,5     4,4     7,8 SE 13,4 67,6 0,0  
22-03-2017 6,6     8,8     12,8 W 10,6 57,9 0,0  
21-03-2017 8,0     11,8     14,4 SE 5,8 29,0 0,0  
20-03-2017 11,7     13,6     15,6 SE 5,6 30,6 0,0  
19-03-2017 11,8     14,1     16,3 SE 5,5 27,4 0,0  
18-03-2017 10,1     13,6     17,3 N 7,6 24,1 0,0  
17-03-2017 7,4     10,4     13,7 SE 4,3 25,7 0,0  
16-03-2017 6,9     10,1     13,6 N 7,7 29,0 0,0  
15-03-2017 6,9     9,1     11,4 N 12,1 35,4 0,0  
14-03-2017 5,0     8,0     12,3 NNE 14,0 49,9 0,0  
13-03-2017 0,7     3,7     5,6 N 26,9 77,2 39,2  
12-03-2017 2,3     11,0     18,3 N 23,7 72,4 25,2  
11-03-2017 16,5     18,4     20,9 WNW 11,3 37,0 0,0  
10-03-2017 17,2     19,7     22,9 NW 18,3 62,8 0,0  
09-03-2017 15,9     19,7     23,2 NW 13,5 38,6 0,0  
08-03-2017 9,6     13,9     19,1 NW 23,5 91,7 0,0  
07-03-2017 9,1     12,0     16,4 WNW 22,9 70,8 0,0  
06-03-2017 9,3     11,9     15,4 WNW 20,6 66,0 0,0  
05-03-2017 3,1     8,3     13,4 W 13,2 53,1 0,0  
04-03-2017 1,2     3,8     7,7 W 31,2 96,6 0,2  
03-03-2017 2,7     6,8     9,7 SE 15,6 138,4 9,8  
02-03-2017 7,3     9,9     12,8 SSE 9,0 43,5 0,0  
01-03-2017 5,0     8,3     11,3 S 8,2 35,4 0,0  
28-02-2017 5,9     9,2     12,8 W 17,1 66,0 0,0  
27-02-2017 7,6     10,9     12,7 SE 7,6 32,2 0,0  
26-02-2017 2,0     8,7     11,1 SE 4,0 22,5 0,0  
25-02-2017 2,0     6,3     9,9 SE 5,0 27,4 0,0  
24-02-2017 4,7     8,2     10,9 N 17,4 51,5 2,6  
23-02-2017 8,6     12,3     14,4 SW 7,2 69,2 0,0  
22-02-2017 8,4     11,4     13,9 SE 5,1 24,1 0,0  
Dades del mes en curs (actualitzades fins l'últim dia disponible)
03/2017 0,1 7,1 17,2 10,4 5,6 13,9 23,2   14,0 138,4 80,4  
Últimes dades mensuals
02/2017 0,6 4,4 10,1 7,2 5,1 10,3 19,3 13,8 119,1 7,0 4
01/2017 -4,7 2,2 8,3 5,2 -0,2 8,4 15,8 17,4 106,2 0,4 1
12/2016 1,1 5,6 12,0 7,7 3,8 10,2 17,0 9,1 78,9 80,8 7
11/2016 1,7 6,3 14,5 8,9 5,9 11,6 18,6 12,8 90,1 96,6 11
10/2016 7,7 11,9 15,8 14,3 11,9 17,3 21,9 5,6 46,7 45,2 10
09/2016 11,0 13,4 14,8 17,0 16,9 21,7 28,5 6,6 45,1 20,6 6
Dades de l'any en curs (actualitzades fins l'últim dia disponible)
2017 -4,7 4,8 17,2 7,8 -0,2 11,1 23,2   14,9 138,4 87,8  
Últimes dades anuals
2016 1,1 9,3 15,8 12,0 3,8 15,2 28,5 8,5 90,1 243,2 34